Time,TemperatureF,DewpointF,PressureIn,WindDirection,WindDirectionDegrees,WindSpeedMPH,WindSpeedGustMPH,Humidity,HourlyPrecipIn,Conditions,Clouds,dailyrainin,SoftwareType,DateUTC
2013-05-17 00:01:00,54.3,34.0,29.35,South,180,2.5,2.5,46,0.00,,---,0.00,VWS V14.01,2013-05-17 04:01:00,
2013-05-17 00:03:00,54.3,34.0,29.35,West,270,2.9,2.9,46,0.00,,---,0.00,VWS V14.01,2013-05-17 04:03:00,
2013-05-17 00:07:00,54.1,33.3,29.35,East,90,1.6,3.4,45,0.00,,---,0.00,VWS V14.01,2013-05-17 04:07:00,
2013-05-17 00:09:00,54.1,33.8,29.35,ESE,112,0.0,2.2,46,0.00,,---,0.00,VWS V14.01,2013-05-17 04:09:00,
2013-05-17 00:10:00,54.1,33.3,29.35,ESE,112,2.7,2.7,45,0.00,,---,0.00,VWS V14.01,2013-05-17 04:10:00,
2013-05-17 00:15:00,54.0,33.1,29.35,SSW,202,1.6,2.0,45,0.00,,---,0.00,VWS V14.01,2013-05-17 04:15:00,
2013-05-17 00:20:00,53.6,33.3,29.35,SSW,202,0.0,0.0,46,0.00,,---,0.00,VWS V14.01,2013-05-17 04:20:00,
2013-05-17 00:26:00,53.1,33.4,29.35,SSW,202,0.0,0.0,47,0.00,,---,0.00,VWS V14.01,2013-05-17 04:26:00,
2013-05-17 00:32:00,52.5,33.4,29.35,SSW,202,0.0,0.0,48,0.00,,---,0.00,VWS V14.01,2013-05-17 04:32:00,
2013-05-17 00:37:00,52.2,33.1,29.35,ENE,68,0.0,0.0,48,0.00,,---,0.00,VWS V14.01,2013-05-17 04:37:00,
2013-05-17 00:42:00,51.8,33.3,29.35,NNE,22,0.0,0.0,49,0.00,,---,0.00,VWS V14.01,2013-05-17 04:42:00,
2013-05-17 00:47:00,51.6,33.6,29.35,NNE,22,0.0,0.0,50,0.00,,---,0.00,VWS V14.01,2013-05-17 04:47:00,
2013-05-17 00:52:00,51.6,33.6,29.35,NNE,22,0.0,0.0,50,0.00,,---,0.00,VWS V14.01,2013-05-17 04:52:00,
2013-05-17 00:57:00,51.6,34.6,29.35,WSW,248,4.3,4.3,52,0.00,,---,0.00,VWS V14.01,2013-05-17 04:57:00,
2013-05-17 01:02:00,51.8,33.8,29.35,SSW,202,2.9,4.0,50,0.00,,---,0.00,VWS V14.01,2013-05-17 05:02:00,
2013-05-17 01:07:00,52.5,34.4,29.35,West,270,3.4,3.4,50,0.00,,---,0.00,VWS V14.01,2013-05-17 05:07:00,
2013-05-17 01:12:00,52.7,34.1,29.35,WSW,248,2.7,4.3,49,0.00,,---,0.00,VWS V14.01,2013-05-17 05:12:00,
2013-05-17 01:17:00,52.7,34.1,29.35,NNW,338,2.9,5.6,49,0.00,,---,0.00,VWS V14.01,2013-05-17 05:17:00,
2013-05-17 01:22:00,52.7,34.1,29.35,ESE,112,1.6,2.5,49,0.00,,---,0.00,VWS V14.01,2013-05-17 05:22:00,
2013-05-17 01:27:00,52.9,34.3,29.35,SW,225,1.1,2.0,49,0.00,,---,0.00,VWS V14.01,2013-05-17 05:27:00,
2013-05-17 01:32:00,52.7,33.6,29.35,North,0,1.6,1.6,48,0.00,,---,0.00,VWS V14.01,2013-05-17 05:32:00,
2013-05-17 01:38:00,52.5,33.4,29.35,South,180,2.7,2.7,48,0.00,,---,0.00,VWS V14.01,2013-05-17 05:38:00,
2013-05-17 01:43:00,52.3,33.2,29.35,SW,225,2.7,2.7,48,0.00,,---,0.00,VWS V14.01,2013-05-17 05:43:00,
2013-05-17 01:49:00,51.8,33.3,29.35,SSW,202,0.0,0.0,49,0.00,,---,0.00,VWS V14.01,2013-05-17 05:49:00,
2013-05-17 01:54:00,51.3,33.3,29.35,NW,315,1.1,2.5,50,0.00,,---,0.00,VWS V14.01,2013-05-17 05:54:00,
2013-05-17 01:59:00,50.7,33.3,29.35,East,90,0.0,0.0,51,0.00,,---,0.00,VWS V14.01,2013-05-17 05:59:00,
2013-05-17 02:04:00,50.4,32.9,29.35,East,90,0.0,0.0,51,0.00,,---,0.00,VWS V14.01,2013-05-17 06:04:00,
2013-05-17 02:10:00,50.2,33.2,29.35,East,90,2.5,2.5,52,0.00,,---,0.00,VWS V14.01,2013-05-17 06:10:00,
2013-05-17 02:15:00,50.0,33.1,29.35,NNW,338,0.0,0.0,52,0.00,,---,0.00,VWS V14.01,2013-05-17 06:15:00,
2013-05-17 02:20:00,49.8,33.9,29.35,SW,225,3.1,3.1,54,0.00,,---,0.00,VWS V14.01,2013-05-17 06:20:00,
2013-05-17 02:25:00,50.2,33.7,29.35,ENE,68,2.9,2.9,53,0.00,,---,0.00,VWS V14.01,2013-05-17 06:25:00,
2013-05-17 02:30:00,50.4,33.4,29.35,WSW,248,2.0,4.9,52,0.00,,---,0.00,VWS V14.01,2013-05-17 06:30:00,
2013-05-17 02:35:00,50.7,33.3,29.35,South,180,1.6,1.6,51,0.00,,---,0.00,VWS V14.01,2013-05-17 06:35:00,
2013-05-17 02:41:00,51.1,33.1,29.35,NNE,22,1.3,4.9,50,0.00,,---,0.00,VWS V14.01,2013-05-17 06:41:00,
2013-05-17 02:46:00,51.1,33.1,29.35,East,90,1.3,2.2,50,0.00,,---,0.00,VWS V14.01,2013-05-17 06:46:00,
2013-05-17 02:52:00,50.9,32.9,29.35,WSW,248,2.7,2.7,50,0.00,,---,0.00,VWS V14.01,2013-05-17 06:52:00,
2013-05-17 02:57:00,50.7,33.3,29.38,WSW,248,2.5,2.7,51,0.00,,---,0.00,VWS V14.01,2013-05-17 06:57:00,
2013-05-17 03:02:00,50.4,32.9,29.38,SW,225,1.3,2.5,51,0.00,,---,0.00,VWS V14.01,2013-05-17 07:02:00,
2013-05-17 03:07:00,50.2,32.8,29.38,SW,225,0.0,0.0,51,0.00,,---,0.00,VWS V14.01,2013-05-17 07:07:00,
2013-05-17 03:12:00,50.2,32.8,29.38,SW,225,1.3,2.0,51,0.00,,---,0.00,VWS V14.01,2013-05-17 07:12:00,
2013-05-17 03:17:00,50.0,32.1,29.38,SW,225,1.6,2.0,50,0.00,,---,0.00,VWS V14.01,2013-05-17 07:17:00,
2013-05-17 03:22:00,49.8,32.4,29.38,SW,225,0.0,1.3,51,0.00,,---,0.00,VWS V14.01,2013-05-17 07:22:00,
2013-05-17 03:27:00,49.6,32.3,29.38,SW,225,0.0,0.0,51,0.00,,---,0.00,VWS V14.01,2013-05-17 07:27:00,
2013-05-17 03:32:00,49.5,32.1,29.38,SW,225,0.0,0.0,51,0.00,,---,0.00,VWS V14.01,2013-05-17 07:32:00,
2013-05-17 03:38:00,49.3,32.4,29.38,SW,225,2.2,2.2,52,0.00,,---,0.00,VWS V14.01,2013-05-17 07:38:00,
2013-05-17 03:43:00,49.1,32.2,29.38,SW,225,0.0,0.0,52,0.00,,---,0.00,VWS V14.01,2013-05-17 07:43:00,
2013-05-17 03:48:00,48.9,32.1,29.38,SW,225,0.0,0.0,52,0.00,,---,0.00,VWS V14.01,2013-05-17 07:48:00,
2013-05-17 03:54:00,48.6,32.2,29.38,SW,225,1.6,2.0,53,0.00,,---,0.00,VWS V14.01,2013-05-17 07:54:00,
2013-05-17 04:00:00,48.2,32.8,29.38,SW,225,1.6,2.5,55,0.00,,---,0.00,VWS V14.01,2013-05-17 08:00:00,
2013-05-17 04:05:00,47.8,32.9,29.38,SW,225,0.0,0.0,56,0.00,,---,0.00,VWS V14.01,2013-05-17 08:05:00,
2013-05-17 04:11:00,47.5,32.6,29.38,SW,225,0.0,0.0,56,0.00,,---,0.00,VWS V14.01,2013-05-17 08:11:00,
2013-05-17 04:16:00,47.1,32.2,29.38,SW,225,2.5,2.5,56,0.00,,---,0.00,VWS V14.01,2013-05-17 08:16:00,
2013-05-17 04:21:00,46.8,32.3,29.38,SW,225,0.0,0.0,57,0.00,,---,0.00,VWS V14.01,2013-05-17 08:21:00,
2013-05-17 04:27:00,46.8,32.8,29.38,SW,225,0.9,2.0,58,0.00,,---,0.00,VWS V14.01,2013-05-17 08:27:00,
2013-05-17 04:32:00,46.4,32.9,29.38,SW,225,0.0,0.0,59,0.00,,---,0.00,VWS V14.01,2013-05-17 08:32:00,
2013-05-17 04:38:00,46.4,32.4,29.38,SW,225,1.6,2.5,58,0.00,,---,0.00,VWS V14.01,2013-05-17 08:38:00,
2013-05-17 04:43:00,46.2,32.7,29.38,SW,225,0.0,0.0,59,0.00,,---,0.00,VWS V14.01,2013-05-17 08:43:00,
2013-05-17 04:48:00,46.2,32.3,29.38,SW,225,2.0,2.0,58,0.00,,---,0.00,VWS V14.01,2013-05-17 08:48:00,
2013-05-17 04:53:00,46.0,33.0,29.38,SW,225,0.9,1.1,60,0.00,,---,0.00,VWS V14.01,2013-05-17 08:53:00,
2013-05-17 04:58:00,46.0,33.0,29.38,West,270,3.6,3.6,60,0.00,,---,0.00,VWS V14.01,2013-05-17 08:58:00,
2013-05-17 05:03:00,45.7,32.6,29.38,East,90,2.5,3.4,60,0.00,,---,0.00,VWS V14.01,2013-05-17 09:03:00,
2013-05-17 05:08:00,45.7,33.0,29.41,SW,225,1.3,1.3,61,0.00,,---,0.00,VWS V14.01,2013-05-17 09:08:00,
2013-05-17 05:13:00,45.7,33.4,29.41,WSW,248,2.2,2.2,62,0.00,,---,0.00,VWS V14.01,2013-05-17 09:13:00,
2013-05-17 05:19:00,45.3,33.1,29.41,WSW,248,1.6,1.6,62,0.00,,---,0.00,VWS V14.01,2013-05-17 09:19:00,
2013-05-17 05:25:00,45.1,32.9,29.41,WSW,248,1.3,1.6,62,0.00,,---,0.00,VWS V14.01,2013-05-17 09:25:00,
2013-05-17 05:30:00,45.1,33.3,29.41,WSW,248,1.1,1.6,63,0.00,,---,0.00,VWS V14.01,2013-05-17 09:30:00,
2013-05-17 05:35:00,45.5,34.0,29.41,North,0,2.7,4.3,64,0.00,,---,0.00,VWS V14.01,2013-05-17 09:35:00,
2013-05-17 05:40:00,46.6,34.7,29.44,SW,225,1.3,5.4,63,0.00,,---,0.00,VWS V14.01,2013-05-17 09:40:00,
2013-05-17 05:46:00,47.1,35.2,29.44,SW,225,0.0,0.0,63,0.00,,---,0.00,VWS V14.01,2013-05-17 09:46:00,
2013-05-17 05:51:00,47.1,35.2,29.44,ENE,68,0.9,2.0,63,0.00,,---,0.00,VWS V14.01,2013-05-17 09:51:00,
2013-05-17 05:56:00,47.3,35.4,29.44,WSW,248,1.6,2.7,63,0.00,,---,0.00,VWS V14.01,2013-05-17 09:56:00,
2013-05-17 06:01:00,47.1,35.2,29.44,SSE,158,1.6,2.5,63,0.00,,---,0.00,VWS V14.01,2013-05-17 10:01:00,
2013-05-17 06:07:00,47.3,35.4,29.44,SSE,158,0.0,0.0,63,0.00,,---,0.00,VWS V14.01,2013-05-17 10:07:00,
2013-05-17 06:12:00,47.5,35.5,29.44,South,180,0.0,1.6,63,0.00,,---,0.00,VWS V14.01,2013-05-17 10:12:00,
2013-05-17 06:17:00,47.7,35.7,29.44,ESE,112,1.3,1.3,63,0.00,,---,0.00,VWS V14.01,2013-05-17 10:17:00,
2013-05-17 06:22:00,47.7,36.1,29.44,ESE,112,0.0,0.0,64,0.00,,---,0.00,VWS V14.01,2013-05-17 10:22:00,
2013-05-17 06:28:00,47.8,36.3,29.44,SW,225,1.6,2.0,64,0.00,,---,0.00,VWS V14.01,2013-05-17 10:28:00,
2013-05-17 06:33:00,48.4,36.4,29.44,ENE,68,1.6,1.6,63,0.00,,---,0.00,VWS V14.01,2013-05-17 10:33:00,
2013-05-17 06:38:00,48.7,36.7,29.44,ESE,112,1.3,2.5,63,0.00,,---,0.00,VWS V14.01,2013-05-17 10:38:00,
2013-05-17 06:44:00,49.1,36.7,29.44,SW,225,1.3,1.3,62,0.00,,---,0.00,VWS V14.01,2013-05-17 10:44:00,
2013-05-17 06:50:00,49.5,36.6,29.44,SW,225,1.1,2.5,61,0.00,,---,0.00,VWS V14.01,2013-05-17 10:50:00,
2013-05-17 06:56:00,49.6,36.8,29.44,SW,225,0.0,0.0,61,0.00,,---,0.00,VWS V14.01,2013-05-17 10:56:00,
2013-05-17 07:01:00,50.0,36.7,29.44,WNW,292,2.0,2.9,60,0.00,,---,0.00,VWS V14.01,2013-05-17 11:01:00,
2013-05-17 07:07:00,50.4,37.0,29.44,SW,225,0.0,1.1,60,0.00,,---,0.00,VWS V14.01,2013-05-17 11:07:00,
2013-05-17 07:13:00,50.7,37.8,29.47,East,90,1.3,2.7,61,0.00,,---,0.00,VWS V14.01,2013-05-17 11:13:00,
2013-05-17 07:18:00,51.1,37.3,29.47,ENE,68,0.0,0.0,59,0.00,,---,0.00,VWS V14.01,2013-05-17 11:18:00,
2013-05-17 07:23:00,51.3,37.4,29.47,NNW,338,0.0,0.0,59,0.00,,---,0.00,VWS V14.01,2013-05-17 11:23:00,
2013-05-17 07:29:00,51.6,37.8,29.47,NNW,338,0.0,0.0,59,0.00,,---,0.00,VWS V14.01,2013-05-17 11:29:00,
2013-05-17 07:34:00,52.2,38.3,29.47,NNE,22,2.0,2.0,59,0.00,,---,0.00,VWS V14.01,2013-05-17 11:34:00,
2013-05-17 07:39:00,53.1,38.7,29.47,NNW,338,3.1,3.1,58,0.00,,---,0.00,VWS V14.01,2013-05-17 11:39:00,
2013-05-17 07:45:00,53.6,38.3,29.47,NW,315,4.7,4.7,56,0.00,,---,0.00,VWS V14.01,2013-05-17 11:45:00,
2013-05-17 07:51:00,54.0,36.8,29.47,ESE,112,2.5,3.4,52,0.00,,---,0.00,VWS V14.01,2013-05-17 11:51:00,
2013-05-17 07:57:00,54.5,36.8,29.50,SSW,202,2.7,4.0,51,0.00,,---,0.00,VWS V14.01,2013-05-17 11:57:00,
2013-05-17 08:02:00,54.9,36.6,29.50,WNW,292,2.9,3.8,50,0.00,,---,0.00,VWS V14.01,2013-05-17 12:02:00,
2013-05-17 08:07:00,55.4,37.1,29.50,NNE,22,4.5,4.5,50,0.00,,---,0.00,VWS V14.01,2013-05-17 12:07:00,
2013-05-17 08:13:00,55.8,36.9,29.50,WSW,248,1.3,2.9,49,0.00,,---,0.00,VWS V14.01,2013-05-17 12:13:00,
2013-05-17 08:18:00,56.1,36.7,29.50,SW,225,2.9,4.0,48,0.00,,---,0.00,VWS V14.01,2013-05-17 12:18:00,
2013-05-17 08:23:00,56.1,35.6,29.50,NNW,338,3.4,6.5,46,0.00,,---,0.00,VWS V14.01,2013-05-17 12:23:00,
2013-05-17 08:28:00,56.3,36.3,29.50,NNE,22,4.0,4.0,47,0.00,,---,0.00,VWS V14.01,2013-05-17 12:28:00,
2013-05-17 08:34:00,56.3,35.2,29.50,SSW,202,4.9,5.8,45,0.00,,---,0.00,VWS V14.01,2013-05-17 12:34:00,
2013-05-17 08:39:00,56.1,35.6,29.50,WSW,248,2.9,6.7,46,0.00,,---,0.00,VWS V14.01,2013-05-17 12:39:00,
2013-05-17 08:44:00,55.9,34.9,29.50,ENE,68,2.7,4.3,45,0.00,,---,0.00,VWS V14.01,2013-05-17 12:44:00,
2013-05-17 08:50:00,55.8,35.3,29.50,WNW,292,3.6,3.6,46,0.00,,---,0.00,VWS V14.01,2013-05-17 12:50:00,
2013-05-17 08:55:00,55.8,35.3,29.50,East,90,2.9,4.3,46,0.00,,---,0.00,VWS V14.01,2013-05-17 12:55:00,
2013-05-17 09:00:00,55.6,35.7,29.50,SSW,202,3.6,3.6,47,0.00,,---,0.00,VWS V14.01,2013-05-17 13:00:00,
2013-05-17 09:05:00,55.0,35.2,29.50,SW,225,2.9,5.8,47,0.00,,---,0.00,VWS V14.01,2013-05-17 13:05:00,
2013-05-17 09:10:00,55.2,34.8,29.53,SW,225,2.7,6.0,46,0.00,,---,0.00,VWS V14.01,2013-05-17 13:10:00,
2013-05-17 09:16:00,55.8,35.3,29.53,SW,225,6.5,6.5,46,0.00,,---,0.00,VWS V14.01,2013-05-17 13:16:00,
2013-05-17 09:21:00,55.9,35.5,29.53,ENE,68,1.6,4.0,46,0.00,,---,0.00,VWS V14.01,2013-05-17 13:21:00,
2013-05-17 09:26:00,55.9,34.4,29.53,North,0,2.9,5.8,44,0.00,,---,0.00,VWS V14.01,2013-05-17 13:26:00,
2013-05-17 09:31:00,56.1,35.1,29.53,SW,225,2.0,5.8,45,0.00,,---,0.00,VWS V14.01,2013-05-17 13:31:00,
2013-05-17 09:37:00,56.7,35.6,29.53,ENE,68,2.5,4.7,45,0.00,,---,0.00,VWS V14.01,2013-05-17 13:37:00,
2013-05-17 09:42:00,57.2,36.1,29.50,WSW,248,2.7,2.7,45,0.00,,---,0.00,VWS V14.01,2013-05-17 13:42:00,
2013-05-17 09:47:00,57.6,35.2,29.50,SW,225,6.5,6.5,43,0.00,,---,0.00,VWS V14.01,2013-05-17 13:47:00,
2013-05-17 09:52:00,57.9,36.2,29.50,WNW,292,2.0,4.0,44,0.00,,---,0.00,VWS V14.01,2013-05-17 13:52:00,
2013-05-17 09:58:00,57.9,34.4,29.53,NW,315,4.0,6.9,41,0.00,,---,0.00,VWS V14.01,2013-05-17 13:58:00,
2013-05-17 10:03:00,58.1,35.2,29.53,ENE,68,3.8,6.0,42,0.00,,---,0.00,VWS V14.01,2013-05-17 14:03:00,
2013-05-17 10:09:00,57.9,33.8,29.53,WNW,292,3.1,7.8,40,0.00,,---,0.00,VWS V14.01,2013-05-17 14:09:00,
2013-05-17 10:14:00,58.1,34.5,29.53,ENE,68,2.5,6.3,41,0.00,,---,0.00,VWS V14.01,2013-05-17 14:14:00,
2013-05-17 10:19:00,57.7,34.2,29.53,NNE,22,4.0,4.0,41,0.00,,---,0.00,VWS V14.01,2013-05-17 14:19:00,
2013-05-17 10:24:00,58.1,34.5,29.53,SSE,158,5.6,6.5,41,0.00,,---,0.00,VWS V14.01,2013-05-17 14:24:00,
2013-05-17 10:29:00,58.3,34.7,29.53,SW,225,4.0,7.8,41,0.00,,---,0.00,VWS V14.01,2013-05-17 14:29:00,
2013-05-17 10:34:00,58.8,35.8,29.53,WSW,248,4.0,4.0,42,0.00,,---,0.00,VWS V14.01,2013-05-17 14:34:00,
2013-05-17 10:40:00,59.0,35.3,29.53,WNW,292,4.0,5.4,41,0.00,,---,0.00,VWS V14.01,2013-05-17 14:40:00,
2013-05-17 10:45:00,59.5,36.5,29.53,NNE,22,3.8,3.8,42,0.00,,---,0.00,VWS V14.01,2013-05-17 14:45:00,
2013-05-17 10:50:00,60.1,36.9,29.53,ENE,68,3.8,4.0,42,0.00,,---,0.00,VWS V14.01,2013-05-17 14:50:00,
2013-05-17 10:56:00,59.2,34.9,29.53,NNW,338,5.8,6.5,40,0.00,,---,0.00,VWS V14.01,2013-05-17 14:56:00,
2013-05-17 11:02:00,58.5,35.5,29.53,NW,315,3.4,9.0,42,0.00,,---,0.00,VWS V14.01,2013-05-17 15:02:00,
2013-05-17 11:08:00,58.1,34.5,29.53,SW,225,3.4,4.0,41,0.00,,---,0.00,VWS V14.01,2013-05-17 15:08:00,
2013-05-17 11:13:00,58.6,35.0,29.53,ESE,112,5.4,7.6,41,0.00,,---,0.00,VWS V14.01,2013-05-17 15:13:00,
2013-05-17 11:18:00,59.2,34.3,29.53,SSW,202,8.1,8.1,39,0.00,,---,0.00,VWS V14.01,2013-05-17 15:18:00,
2013-05-17 11:23:00,59.4,34.4,29.53,WSW,248,6.5,6.5,39,0.00,,---,0.00,VWS V14.01,2013-05-17 15:23:00,
2013-05-17 11:29:00,59.4,34.4,29.53,SSW,202,6.3,6.5,39,0.00,,---,0.00,VWS V14.01,2013-05-17 15:29:00,
2013-05-17 11:35:00,58.5,33.6,29.53,NNE,22,4.0,5.4,39,0.00,,---,0.00,VWS V14.01,2013-05-17 15:35:00,
2013-05-17 11:40:00,58.3,34.1,29.56,NNE,22,2.5,6.5,40,0.00,,---,0.00,VWS V14.01,2013-05-17 15:40:00,
2013-05-17 11:45:00,59.2,34.9,29.56,NE,45,1.6,3.8,40,0.00,,---,0.00,VWS V14.01,2013-05-17 15:45:00,
2013-05-17 11:50:00,58.8,34.6,29.56,South,180,2.0,4.9,40,0.00,,---,0.00,VWS V14.01,2013-05-17 15:50:00,
2013-05-17 11:55:00,58.8,34.6,29.56,SW,225,2.7,6.0,40,0.00,,---,0.00,VWS V14.01,2013-05-17 15:55:00,
2013-05-17 12:00:00,58.3,33.5,29.56,WSW,248,2.9,6.3,39,0.00,,---,0.00,VWS V14.01,2013-05-17 16:00:00,
2013-05-17 12:06:00,58.5,34.2,29.56,South,180,4.3,4.3,40,0.00,,---,0.00,VWS V14.01,2013-05-17 16:06:00,
2013-05-17 12:11:00,58.8,35.2,29.56,NNE,22,2.9,2.9,41,0.00,,---,0.00,VWS V14.01,2013-05-17 16:11:00,
2013-05-17 12:17:00,59.7,34.7,29.56,ENE,68,2.5,7.4,39,0.00,,---,0.00,VWS V14.01,2013-05-17 16:17:00,
2013-05-17 12:22:00,60.1,35.1,29.56,WSW,248,3.8,4.0,39,0.00,,---,0.00,VWS V14.01,2013-05-17 16:22:00,
2013-05-17 12:27:00,59.9,34.2,29.56,WNW,292,12.1,12.5,38,0.00,,---,0.00,VWS V14.01,2013-05-17 16:27:00,
2013-05-17 12:32:00,59.9,34.2,29.56,North,0,2.9,4.3,38,0.00,,---,0.00,VWS V14.01,2013-05-17 16:32:00,
2013-05-17 12:37:00,59.9,34.2,29.56,ENE,68,3.6,5.8,38,0.00,,---,0.00,VWS V14.01,2013-05-17 16:37:00,
2013-05-17 12:42:00,60.6,34.9,29.56,SSW,202,3.1,3.8,38,0.00,,---,0.00,VWS V14.01,2013-05-17 16:42:00,
2013-05-17 12:48:00,61.2,35.4,29.56,SSE,158,2.5,3.1,38,0.00,,---,0.00,VWS V14.01,2013-05-17 16:48:00,
2013-05-17 12:53:00,61.2,34.0,29.56,SW,225,2.9,8.1,36,0.00,,---,0.00,VWS V14.01,2013-05-17 16:53:00,
2013-05-17 12:58:00,60.8,33.0,29.56,South,180,5.8,10.1,35,0.00,,---,0.00,VWS V14.01,2013-05-17 16:58:00,
2013-05-17 13:04:00,61.2,33.3,29.56,SE,135,8.5,9.2,35,0.00,,---,0.00,VWS V14.01,2013-05-17 17:04:00,
2013-05-17 13:09:00,61.2,33.3,29.56,SSW,202,4.9,10.3,35,0.00,,---,0.00,VWS V14.01,2013-05-17 17:09:00,
2013-05-17 13:14:00,61.5,33.6,29.56,East,90,3.6,13.0,35,0.00,,---,0.00,VWS V14.01,2013-05-17 17:14:00,
2013-05-17 13:19:00,61.9,34.0,29.56,East,90,3.4,9.8,35,0.00,,---,0.00,VWS V14.01,2013-05-17 17:19:00,
2013-05-17 13:25:00,62.6,34.6,29.53,NW,315,6.5,6.5,35,0.00,,---,0.00,VWS V14.01,2013-05-17 17:25:00,
2013-05-17 13:30:00,62.2,33.5,29.53,WSW,248,4.3,9.0,34,0.00,,---,0.00,VWS V14.01,2013-05-17 17:30:00,
2013-05-17 13:35:00,63.0,34.2,29.53,West,270,4.0,5.6,34,0.00,,---,0.00,VWS V14.01,2013-05-17 17:35:00,
2013-05-17 13:41:00,63.1,34.3,29.53,NE,45,4.0,4.0,34,0.00,,---,0.00,VWS V14.01,2013-05-17 17:41:00,
2013-05-17 13:46:00,63.7,34.8,29.53,West,270,4.9,5.8,34,0.00,,---,0.00,VWS V14.01,2013-05-17 17:46:00,
2013-05-17 13:52:00,63.5,34.7,29.53,West,270,2.9,11.4,34,0.00,,---,0.00,VWS V14.01,2013-05-17 17:52:00,
2013-05-17 13:57:00,63.9,34.2,29.56,NW,315,1.3,4.9,33,0.00,,---,0.00,VWS V14.01,2013-05-17 17:57:00,
2013-05-17 14:03:00,64.0,34.4,29.56,East,90,3.4,7.8,33,0.00,,---,0.00,VWS V14.01,2013-05-17 18:03:00,
2013-05-17 14:08:00,64.4,34.7,29.56,South,180,3.8,4.7,33,0.00,,---,0.00,VWS V14.01,2013-05-17 18:08:00,
2013-05-17 14:13:00,64.6,34.1,29.56,WNW,292,3.6,7.4,32,0.00,,---,0.00,VWS V14.01,2013-05-17 18:13:00,
2013-05-17 14:18:00,64.4,33.9,29.56,North,0,3.1,4.3,32,0.00,,---,0.00,VWS V14.01,2013-05-17 18:18:00,
2013-05-17 14:24:00,65.1,35.3,29.56,SW,225,2.7,4.0,33,0.00,,---,0.00,VWS V14.01,2013-05-17 18:24:00,
2013-05-17 14:29:00,65.5,35.6,29.56,SW,225,2.5,7.4,33,0.00,,---,0.00,VWS V14.01,2013-05-17 18:29:00,
2013-05-17 14:34:00,65.7,35.0,29.56,WNW,292,5.4,7.2,32,0.00,,---,0.00,VWS V14.01,2013-05-17 18:34:00,
2013-05-17 14:40:00,66.2,36.3,29.56,ESE,112,7.6,7.6,33,0.00,,---,0.00,VWS V14.01,2013-05-17 18:40:00,
2013-05-17 14:45:00,66.2,35.5,29.56,NE,45,3.8,6.3,32,0.00,,---,0.00,VWS V14.01,2013-05-17 18:45:00,
2013-05-17 14:50:00,65.7,35.0,29.56,ESE,112,2.7,13.0,32,0.00,,---,0.00,VWS V14.01,2013-05-17 18:50:00,
2013-05-17 14:55:00,65.8,34.4,29.59,NNW,338,3.6,4.7,31,0.00,,---,0.00,VWS V14.01,2013-05-17 18:55:00,
2013-05-17 15:01:00,66.2,35.5,29.59,SSE,158,2.0,2.0,32,0.00,,---,0.00,VWS V14.01,2013-05-17 19:01:00,
2013-05-17 15:07:00,66.0,34.5,29.59,North,0,2.0,5.8,31,0.00,,---,0.00,VWS V14.01,2013-05-17 19:07:00,
2013-05-17 15:13:00,65.8,33.6,29.56,SSW,202,4.0,4.9,30,0.00,,---,0.00,VWS V14.01,2013-05-17 19:13:00,
2013-05-17 15:18:00,65.8,34.4,29.56,West,270,6.0,6.0,31,0.00,,---,0.00,VWS V14.01,2013-05-17 19:18:00,
2013-05-17 15:23:00,65.3,33.1,29.56,NNE,22,3.4,8.1,30,0.00,,---,0.00,VWS V14.01,2013-05-17 19:23:00,
2013-05-17 15:28:00,65.5,33.3,29.56,WNW,292,3.4,6.3,30,0.00,,---,0.00,VWS V14.01,2013-05-17 19:28:00,
2013-05-17 15:33:00,66.0,33.7,29.56,ESE,112,1.6,1.6,30,0.00,,---,0.00,VWS V14.01,2013-05-17 19:33:00,
2013-05-17 15:38:00,66.0,34.5,29.56,West,270,7.4,7.4,31,0.00,,---,0.00,VWS V14.01,2013-05-17 19:38:00,
2013-05-17 15:43:00,66.0,33.7,29.56,NNW,338,3.6,5.6,30,0.00,,---,0.00,VWS V14.01,2013-05-17 19:43:00,
2013-05-17 15:48:00,67.1,35.5,29.56,WSW,248,4.9,5.4,31,0.00,,---,0.00,VWS V14.01,2013-05-17 19:48:00,
2013-05-17 15:54:00,68.0,35.4,29.56,West,270,5.6,6.3,30,0.00,,---,0.00,VWS V14.01,2013-05-17 19:54:00,
2013-05-17 15:59:00,68.0,34.6,29.56,WSW,248,4.3,8.1,29,0.00,,---,0.00,VWS V14.01,2013-05-17 19:59:00,
2013-05-17 16:05:00,67.6,34.3,29.56,ENE,68,5.8,6.0,29,0.00,,---,0.00,VWS V14.01,2013-05-17 20:05:00,
2013-05-17 16:10:00,67.3,34.0,29.56,NNE,22,3.6,5.8,29,0.00,,---,0.00,VWS V14.01,2013-05-17 20:10:00,
2013-05-17 16:16:00,66.6,33.3,29.56,SW,225,1.3,5.8,29,0.00,,---,0.00,VWS V14.01,2013-05-17 20:16:00,
2013-05-17 16:21:00,65.1,32.1,29.56,SW,225,3.6,9.4,29,0.00,,---,0.00,VWS V14.01,2013-05-17 20:21:00,
2013-05-17 16:26:00,65.5,33.3,29.59,WNW,292,5.4,5.4,30,0.00,,---,0.00,VWS V14.01,2013-05-17 20:26:00,
2013-05-17 16:32:00,64.9,32.8,29.59,WNW,292,2.2,3.1,30,0.00,,---,0.00,VWS V14.01,2013-05-17 20:32:00,
2013-05-17 16:37:00,64.4,32.3,29.59,WSW,248,2.7,3.8,30,0.00,,---,0.00,VWS V14.01,2013-05-17 20:37:00,
2013-05-17 16:43:00,65.1,32.9,29.59,South,180,2.9,4.3,30,0.00,,---,0.00,VWS V14.01,2013-05-17 20:43:00,
2013-05-17 16:48:00,66.2,34.7,29.59,East,90,3.4,3.4,31,0.00,,---,0.00,VWS V14.01,2013-05-17 20:48:00,
2013-05-17 16:53:00,65.5,33.3,29.59,West,270,5.4,6.0,30,0.00,,---,0.00,VWS V14.01,2013-05-17 20:53:00,
2013-05-17 16:58:00,64.2,32.2,29.59,SW,225,2.9,2.9,30,0.00,,---,0.00,VWS V14.01,2013-05-17 20:58:00,
2013-05-17 17:04:00,63.5,30.7,29.59,WSW,248,4.3,7.2,29,0.00,,---,0.00,VWS V14.01,2013-05-17 21:04:00,
2013-05-17 17:09:00,63.1,30.4,29.59,NNE,22,4.3,4.9,29,0.00,,---,0.00,VWS V14.01,2013-05-17 21:09:00,
2013-05-17 17:15:00,63.5,30.7,29.59,SW,225,5.4,8.7,29,0.00,,---,0.00,VWS V14.01,2013-05-17 21:15:00,
2013-05-17 17:21:00,63.0,30.2,29.59,SSW,202,3.8,6.0,29,0.00,,---,0.00,VWS V14.01,2013-05-17 21:21:00,
2013-05-17 17:26:00,63.1,30.4,29.59,SW,225,4.3,4.7,29,0.00,,---,0.00,VWS V14.01,2013-05-17 21:26:00,
2013-05-17 17:31:00,63.1,31.2,29.59,NNW,338,4.7,6.5,30,0.00,,---,0.00,VWS V14.01,2013-05-17 21:31:00,
2013-05-17 17:37:00,62.8,31.7,29.59,North,0,3.6,4.0,31,0.00,,---,0.00,VWS V14.01,2013-05-17 21:37:00,
2013-05-17 17:42:00,63.1,31.2,29.59,West,270,4.9,4.9,30,0.00,,---,0.00,VWS V14.01,2013-05-17 21:42:00,
2013-05-17 17:47:00,63.0,31.1,29.59,WNW,292,2.0,4.7,30,0.00,,---,0.00,VWS V14.01,2013-05-17 21:47:00,
2013-05-17 17:52:00,63.5,32.3,29.59,SSW,202,2.5,2.5,31,0.00,,---,0.00,VWS V14.01,2013-05-17 21:52:00,
2013-05-17 17:57:00,63.7,31.7,29.59,West,270,2.9,3.8,30,0.00,,---,0.00,VWS V14.01,2013-05-17 21:57:00,
2013-05-17 18:03:00,63.7,31.7,29.59,WSW,248,2.9,3.6,30,0.00,,---,0.00,VWS V14.01,2013-05-17 22:03:00,
2013-05-17 18:08:00,63.9,31.9,29.59,WNW,292,4.3,4.3,30,0.00,,---,0.00,VWS V14.01,2013-05-17 22:08:00,
2013-05-17 18:14:00,64.2,32.2,29.59,East,90,2.9,3.6,30,0.00,,---,0.00,VWS V14.01,2013-05-17 22:14:00,
2013-05-17 18:19:00,64.4,32.3,29.59,SW,225,1.3,2.5,30,0.00,,---,0.00,VWS V14.01,2013-05-17 22:19:00,
2013-05-17 18:25:00,64.4,32.3,29.59,SE,135,3.1,4.0,30,0.00,,---,0.00,VWS V14.01,2013-05-17 22:25:00,
2013-05-17 18:31:00,64.4,32.3,29.59,WNW,292,3.4,4.0,30,0.00,,---,0.00,VWS V14.01,2013-05-17 22:31:00,
2013-05-17 18:36:00,64.4,32.3,29.59,ESE,112,0.0,1.3,30,0.00,,---,0.00,VWS V14.01,2013-05-17 22:36:00,
2013-05-17 18:42:00,64.0,32.8,29.59,West,270,3.6,3.6,31,0.00,,---,0.00,VWS V14.01,2013-05-17 22:42:00,
2013-05-17 18:47:00,63.1,32.0,29.59,South,180,1.1,3.1,31,0.00,,---,0.00,VWS V14.01,2013-05-17 22:47:00,
2013-05-17 18:52:00,62.2,31.2,29.59,SW,225,2.2,2.2,31,0.00,,---,0.00,VWS V14.01,2013-05-17 22:52:00,
2013-05-17 18:57:00,61.9,30.9,29.59,WNW,292,1.3,2.5,31,0.00,,---,0.00,VWS V14.01,2013-05-17 22:57:00,
2013-05-17 19:02:00,61.2,31.1,29.59,NNW,338,3.4,3.6,32,0.00,,---,0.00,VWS V14.01,2013-05-17 23:02:00,
2013-05-17 19:07:00,60.6,31.4,29.59,NNE,22,2.5,3.8,33,0.00,,---,0.00,VWS V14.01,2013-05-17 23:07:00,
2013-05-17 19:12:00,60.4,31.2,29.62,SSW,202,1.3,1.6,33,0.00,,---,0.00,VWS V14.01,2013-05-17 23:12:00,
2013-05-17 19:17:00,60.1,31.6,29.62,SW,225,2.5,2.5,34,0.00,,---,0.00,VWS V14.01,2013-05-17 23:17:00,
2013-05-17 19:22:00,59.7,31.3,29.62,SW,225,4.0,4.0,34,0.00,,---,0.00,VWS V14.01,2013-05-17 23:22:00,
2013-05-17 19:27:00,59.5,31.2,29.65,SSW,202,2.0,2.2,34,0.00,,---,0.00,VWS V14.01,2013-05-17 23:27:00,
2013-05-17 19:33:00,59.2,31.6,29.65,SW,225,1.1,2.0,35,0.00,,---,0.00,VWS V14.01,2013-05-17 23:33:00,
2013-05-17 19:39:00,58.6,31.1,29.65,SW,225,1.6,2.7,35,0.00,,---,0.00,VWS V14.01,2013-05-17 23:39:00,
2013-05-17 19:44:00,58.5,30.9,29.65,West,270,0.0,1.3,35,0.00,,---,0.00,VWS V14.01,2013-05-17 23:44:00,
2013-05-17 19:49:00,58.1,31.3,29.65,West,270,0.0,0.0,36,0.00,,---,0.00,VWS V14.01,2013-05-17 23:49:00,
2013-05-17 19:54:00,57.9,31.1,29.65,NW,315,1.3,1.6,36,0.00,,---,0.00,VWS V14.01,2013-05-17 23:54:00,
2013-05-17 20:00:00,57.6,30.8,29.65,NW,315,0.0,0.0,36,0.00,,---,0.00,VWS V14.01,2013-05-18 00:00:00,
2013-05-17 20:05:00,57.0,31.7,29.65,NW,315,1.6,1.6,38,0.00,,---,0.00,VWS V14.01,2013-05-18 00:05:00,
2013-05-17 20:10:00,56.7,32.0,29.68,NW,315,1.3,1.6,39,0.00,,---,0.00,VWS V14.01,2013-05-18 00:10:00,
2013-05-17 20:16:00,56.1,32.2,29.68,NW,315,0.0,0.0,40,0.00,,---,0.00,VWS V14.01,2013-05-18 00:16:00,
2013-05-17 20:21:00,55.8,32.4,29.68,NW,315,1.6,2.0,41,0.00,,---,0.00,VWS V14.01,2013-05-18 00:21:00,
2013-05-17 20:26:00,55.0,32.4,29.68,WSW,248,0.9,1.6,42,0.00,,---,0.00,VWS V14.01,2013-05-18 00:26:00,
2013-05-17 20:32:00,54.5,32.5,29.68,WSW,248,0.0,0.0,43,0.00,,---,0.00,VWS V14.01,2013-05-18 00:32:00,
2013-05-17 20:37:00,53.8,32.4,29.68,SSW,202,0.0,2.0,44,0.00,,---,0.00,VWS V14.01,2013-05-18 00:37:00,
2013-05-17 20:44:00,53.2,33.0,29.68,SSW,202,2.5,2.9,46,0.00,,---,0.00,VWS V14.01,2013-05-18 00:44:00,
2013-05-17 20:49:00,53.1,32.8,29.68,SSW,202,2.0,2.0,46,0.00,,---,0.00,VWS V14.01,2013-05-18 00:49:00,
2013-05-17 20:54:00,52.5,33.4,29.68,SSW,202,0.0,0.0,48,0.00,,---,0.00,VWS V14.01,2013-05-18 00:54:00,
2013-05-17 20:59:00,52.0,32.9,29.68,SSW,202,1.6,2.0,48,0.00,,---,0.00,VWS V14.01,2013-05-18 00:59:00,
2013-05-17 21:04:00,51.6,33.1,29.68,SSW,202,0.0,0.0,49,0.00,,---,0.00,VWS V14.01,2013-05-18 01:04:00,
2013-05-17 21:09:00,51.4,33.4,29.68,SSW,202,1.1,2.0,50,0.00,,---,0.00,VWS V14.01,2013-05-18 01:09:00,
2013-05-17 21:15:00,50.7,33.3,29.68,SSW,202,0.0,0.0,51,0.00,,---,0.00,VWS V14.01,2013-05-18 01:15:00,
2013-05-17 21:21:00,50.4,32.9,29.68,SSW,202,2.5,2.5,51,0.00,,---,0.00,VWS V14.01,2013-05-18 01:21:00,
2013-05-17 21:27:00,49.8,32.9,29.71,SSW,202,2.0,2.0,52,0.00,,---,0.00,VWS V14.01,2013-05-18 01:27:00,
2013-05-17 21:32:00,49.3,32.9,29.71,SSW,202,1.6,1.6,53,0.00,,---,0.00,VWS V14.01,2013-05-18 01:32:00,
2013-05-17 21:37:00,48.9,33.0,29.71,SSW,202,2.0,2.0,54,0.00,,---,0.00,VWS V14.01,2013-05-18 01:37:00,
2013-05-17 21:42:00,48.7,32.8,29.71,SSW,202,1.1,1.3,54,0.00,,---,0.00,VWS V14.01,2013-05-18 01:42:00,
2013-05-17 21:47:00,48.4,33.0,29.71,SSW,202,1.1,1.3,55,0.00,,---,0.00,VWS V14.01,2013-05-18 01:47:00,
2013-05-17 21:52:00,48.2,33.3,29.71,SSW,202,0.0,0.0,56,0.00,,---,0.00,VWS V14.01,2013-05-18 01:52:00,
2013-05-17 21:57:00,47.8,32.9,29.71,SSW,202,0.0,0.0,56,0.00,,---,0.00,VWS V14.01,2013-05-18 01:57:00,
2013-05-17 22:02:00,47.7,33.2,29.71,SSW,202,0.0,0.0,57,0.00,,---,0.00,VWS V14.01,2013-05-18 02:02:00,
2013-05-17 22:07:00,47.3,33.3,29.71,SSW,202,0.0,0.0,58,0.00,,---,0.00,VWS V14.01,2013-05-18 02:07:00,
2013-05-17 22:12:00,47.1,33.1,29.71,SSW,202,0.0,0.0,58,0.00,,---,0.00,VWS V14.01,2013-05-18 02:12:00,
2013-05-17 22:17:00,46.9,33.0,29.71,SSW,202,0.0,0.0,58,0.00,,---,0.00,VWS V14.01,2013-05-18 02:17:00,
2013-05-17 22:22:00,46.9,33.4,29.71,SSW,202,0.0,0.0,59,0.00,,---,0.00,VWS V14.01,2013-05-18 02:22:00,
2013-05-17 22:27:00,46.8,33.6,29.71,SSW,202,0.0,0.0,60,0.00,,---,0.00,VWS V14.01,2013-05-18 02:27:00,
2013-05-17 22:32:00,46.8,33.6,29.71,SSW,202,0.0,0.0,60,0.00,,---,0.00,VWS V14.01,2013-05-18 02:32:00,
2013-05-17 22:37:00,46.8,33.6,29.71,SSW,202,1.3,1.3,60,0.00,,---,0.00,VWS V14.01,2013-05-18 02:37:00,
2013-05-17 22:42:00,47.1,34.8,29.71,SSW,202,2.0,2.0,62,0.00,,---,0.00,VWS V14.01,2013-05-18 02:42:00,
2013-05-17 22:47:00,47.3,34.1,29.71,West,270,2.0,2.7,60,0.00,,---,0.00,VWS V14.01,2013-05-18 02:47:00,
2013-05-17 22:52:00,47.5,35.1,29.71,West,270,2.0,2.0,62,0.00,,---,0.00,VWS V14.01,2013-05-18 02:52:00,
2013-05-17 22:57:00,47.7,34.9,29.71,WSW,248,1.6,2.7,61,0.00,,---,0.00,VWS V14.01,2013-05-18 02:57:00,
2013-05-17 23:02:00,48.0,35.2,29.71,WSW,248,0.9,1.1,61,0.00,,---,0.00,VWS V14.01,2013-05-18 03:02:00,
2013-05-17 23:07:00,48.4,35.2,29.71,SW,225,1.1,2.0,60,0.00,,---,0.00,VWS V14.01,2013-05-18 03:07:00,
2013-05-17 23:12:00,48.4,35.6,29.71,SW,225,0.0,0.0,61,0.00,,---,0.00,VWS V14.01,2013-05-18 03:12:00,
2013-05-17 23:17:00,48.2,35.4,29.71,SW,225,2.5,2.5,61,0.00,,---,0.00,VWS V14.01,2013-05-18 03:17:00,
2013-05-17 23:22:00,48.4,35.6,29.71,SSW,202,1.3,2.0,61,0.00,,---,0.00,VWS V14.01,2013-05-18 03:22:00,
2013-05-17 23:27:00,48.2,35.4,29.74,SSW,202,1.1,1.3,61,0.00,,---,0.00,VWS V14.01,2013-05-18 03:27:00,
2013-05-17 23:32:00,48.0,36.0,29.74,SSW,202,0.0,0.0,63,0.00,,---,0.00,VWS V14.01,2013-05-18 03:32:00,
2013-05-17 23:37:00,48.0,36.0,29.74,SSW,202,0.0,0.0,63,0.00,,---,0.00,VWS V14.01,2013-05-18 03:37:00,
2013-05-17 23:43:00,47.8,35.9,29.74,SSW,202,0.0,0.0,63,0.00,,---,0.00,VWS V14.01,2013-05-18 03:43:00,
2013-05-17 23:48:00,47.8,35.9,29.74,SSW,202,0.0,0.0,63,0.00,,---,0.00,VWS V14.01,2013-05-18 03:48:00,
2013-05-17 23:53:00,47.8,36.3,29.74,SSW,202,0.0,0.0,64,0.00,,---,0.00,VWS V14.01,2013-05-18 03:53:00,
2013-05-17 23:58:00,47.8,36.3,29.74,SSW,202,0.0,0.0,64,0.00,,---,0.00,VWS V14.01,2013-05-18 03:58:00,